sensor_id;sensor_type;location;lat;lon;timestamp;pressure;altitude;pressure_sealevel;temperature;humidity
34177;BME280;20450;49.074;9.158;2023-01-27T00:01:23;100150.50;;;1.21;74.77
34177;BME280;20450;49.074;9.158;2023-01-27T00:03:50;100153.72;;;1.24;74.83
34177;BME280;20450;49.074;9.158;2023-01-27T00:06:17;100146.88;;;1.22;74.87
34177;BME280;20450;49.074;9.158;2023-01-27T00:08:44;100146.47;;;1.17;74.70
34177;BME280;20450;49.074;9.158;2023-01-27T00:11:11;100144.94;;;1.14;74.78
34177;BME280;20450;49.074;9.158;2023-01-27T00:13:39;100153.72;;;1.15;74.60
34177;BME280;20450;49.074;9.158;2023-01-27T00:16:06;100148.41;;;1.15;74.82
34177;BME280;20450;49.074;9.158;2023-01-27T00:18:33;100141.28;;;1.15;74.90
34177;BME280;20450;49.074;9.158;2023-01-27T00:21:01;100142.81;;;1.18;74.76
34177;BME280;20450;49.074;9.158;2023-01-27T00:23:27;100142.28;;;1.14;74.00
34177;BME280;20450;49.074;9.158;2023-01-27T00:25:54;100151.78;;;1.17;74.22
34177;BME280;20450;49.074;9.158;2023-01-27T00:28:21;100149.84;;;1.09;73.97
34177;BME280;20450;49.074;9.158;2023-01-27T00:30:53;100148.03;;;1.10;74.24
34177;BME280;20450;49.074;9.158;2023-01-27T00:33:20;100148.69;;;1.12;74.13
34177;BME280;20450;49.074;9.158;2023-01-27T00:35:47;100143.38;;;1.12;74.20
34177;BME280;20450;49.074;9.158;2023-01-27T00:38:14;100155.44;;;1.16;74.05
34177;BME280;20450;49.074;9.158;2023-01-27T00:40:41;100155.16;;;1.19;74.88
34177;BME280;20450;49.074;9.158;2023-01-27T00:43:08;100151.78;;;1.17;74.39
34177;BME280;20450;49.074;9.158;2023-01-27T00:45:35;100147.16;;;1.19;74.97
34177;BME280;20450;49.074;9.158;2023-01-27T00:48:03;100149.41;;;1.14;74.67
34177;BME280;20450;49.074;9.158;2023-01-27T00:50:30;100151.91;;;1.15;74.69
34177;BME280;20450;49.074;9.158;2023-01-27T00:52:57;100150.53;;;1.11;75.21
34177;BME280;20450;49.074;9.158;2023-01-27T00:55:24;100151.34;;;1.12;75.03
34177;BME280;20450;49.074;9.158;2023-01-27T00:57:51;100152.63;;;1.08;75.15
34177;BME280;20450;49.074;9.158;2023-01-27T01:00:18;100146.19;;;1.10;75.55
34177;BME280;20450;49.074;9.158;2023-01-27T01:02:45;100156.53;;;1.13;75.92
34177;BME280;20450;49.074;9.158;2023-01-27T01:05:14;100155.84;;;1.11;75.73
34177;BME280;20450;49.074;9.158;2023-01-27T01:07:47;100156.69;;;1.12;75.70
34177;BME280;20450;49.074;9.158;2023-01-27T01:10:15;100152.06;;;1.14;75.95
34177;BME280;20450;49.074;9.158;2023-01-27T01:12:42;100155.44;;;1.16;75.61
34177;BME280;20450;49.074;9.158;2023-01-27T01:15:10;100144.78;;;1.16;75.53
34177;BME280;20450;49.074;9.158;2023-01-27T01:17:37;100153.06;;;1.13;75.19
34177;BME280;20450;49.074;9.158;2023-01-27T01:20:04;100161.03;;;1.13;75.50
34177;BME280;20450;49.074;9.158;2023-01-27T01:22:33;100162.69;;;1.14;75.27
34177;BME280;20450;49.074;9.158;2023-01-27T01:25:00;100161.03;;;1.13;75.35
34177;BME280;20450;49.074;9.158;2023-01-27T01:27:27;100156.00;;;1.10;75.10
34177;BME280;20450;49.074;9.158;2023-01-27T01:29:54;100151.78;;;1.07;75.21
34177;BME280;20450;49.074;9.158;2023-01-27T01:32:21;100154.16;;;1.10;75.34
34177;BME280;20450;49.074;9.158;2023-01-27T01:34:48;100154.88;;;1.12;75.20
34177;BME280;20450;49.074;9.158;2023-01-27T01:37:15;100151.06;;;1.15;75.47
34177;BME280;20450;49.074;9.158;2023-01-27T01:39:43;100147.59;;;1.14;75.46
34177;BME280;20450;49.074;9.158;2023-01-27T01:42:10;100148.28;;;1.16;75.35
34177;BME280;20450;49.074;9.158;2023-01-27T01:44:42;100148.13;;;1.18;75.49
34177;BME280;20450;49.074;9.158;2023-01-27T01:47:14;100147.16;;;1.19;75.42
34177;BME280;20450;49.074;9.158;2023-01-27T01:49:43;100141.69;;;1.20;75.31
34177;BME280;20450;49.074;9.158;2023-01-27T01:52:15;100135.53;;;1.20;75.04
34177;BME280;20450;49.074;9.158;2023-01-27T01:54:50;100136.09;;;1.23;74.85
34177;BME280;20450;49.074;9.158;2023-01-27T01:57:21;100132.59;;;1.23;74.88
34177;BME280;20450;49.074;9.158;2023-01-27T01:59:55;100132.16;;;1.18;74.85
34177;BME280;20450;49.074;9.158;2023-01-27T02:02:27;100136.25;;;1.03;75.44
34177;BME280;20450;49.074;9.158;2023-01-27T02:04:58;100143.44;;;0.74;76.29
34177;BME280;20450;49.074;9.158;2023-01-27T02:07:32;100144.56;;;0.62;77.74
34177;BME280;20450;49.074;9.158;2023-01-27T02:10:05;100130.44;;;0.52;77.31
34177;BME280;20450;49.074;9.158;2023-01-27T02:12:34;100132.09;;;0.53;77.39
34177;BME280;20450;49.074;9.158;2023-01-27T02:15:01;100136.16;;;0.47;77.74
34177;BME280;20450;49.074;9.158;2023-01-27T02:17:29;100126.94;;;0.42;78.30
34177;BME280;20450;49.074;9.158;2023-01-27T02:20:04;100134.03;;;0.32;78.97
34177;BME280;20450;49.074;9.158;2023-01-27T02:22:38;100135.47;;;0.36;78.71
34177;BME280;20450;49.074;9.158;2023-01-27T02:25:38;100133.63;;;0.27;78.14
34177;BME280;20450;49.074;9.158;2023-01-27T02:28:09;100137.38;;;0.15;78.52
34177;BME280;20450;49.074;9.158;2023-01-27T02:30:36;100135.97;;;0.20;78.32
34177;BME280;20450;49.074;9.158;2023-01-27T02:33:08;100130.00;;;0.37;78.19
34177;BME280;20450;49.074;9.158;2023-01-27T02:35:38;100129.72;;;0.50;78.13
34177;BME280;20450;49.074;9.158;2023-01-27T02:38:11;100132.25;;;0.61;77.96
34177;BME280;20450;49.074;9.158;2023-01-27T02:40:43;100127.59;;;0.63;77.11
34177;BME280;20450;49.074;9.158;2023-01-27T02:43:12;100127.50;;;0.55;77.58
34177;BME280;20450;49.074;9.158;2023-01-27T02:45:40;100133.09;;;0.52;77.56
34177;BME280;20450;49.074;9.158;2023-01-27T02:48:07;100128.06;;;0.49;77.73
34177;BME280;20450;49.074;9.158;2023-01-27T02:50:34;100132.94;;;0.53;78.03
34177;BME280;20450;49.074;9.158;2023-01-27T02:53:02;100130.13;;;0.64;78.26
34177;BME280;20450;49.074;9.158;2023-01-27T02:55:28;100124.09;;;0.72;78.03
34177;BME280;20450;49.074;9.158;2023-01-27T02:57:57;100123.13;;;0.82;77.66
34177;BME280;20450;49.074;9.158;2023-01-27T03:00:44;100123.81;;;0.94;77.53
34177;BME280;20450;49.074;9.158;2023-01-27T03:03:11;100127.16;;;0.96;77.08
34177;BME280;20450;49.074;9.158;2023-01-27T03:05:39;100128.56;;;1.00;76.82
34177;BME280;20450;49.074;9.158;2023-01-27T03:08:06;100131.34;;;0.98;76.76
34177;BME280;20450;49.074;9.158;2023-01-27T03:10:34;100119.75;;;0.99;76.36
34177;BME280;20450;49.074;9.158;2023-01-27T03:13:03;100125.91;;;1.00;76.51
34177;BME280;20450;49.074;9.158;2023-01-27T03:15:30;100122.56;;;0.98;75.90
34177;BME280;20450;49.074;9.158;2023-01-27T03:18:03;100123.13;;;0.82;76.08
34177;BME280;20450;49.074;9.158;2023-01-27T03:20:31;100125.66;;;0.84;76.53
34177;BME280;20450;49.074;9.158;2023-01-27T03:22:58;100122.44;;;0.80;76.40
34177;BME280;20450;49.074;9.158;2023-01-27T03:25:26;100133.22;;;0.79;76.58
34177;BME280;20450;49.074;9.158;2023-01-27T03:27:55;100125.50;;;0.85;76.92
34177;BME280;20450;49.074;9.158;2023-01-27T03:30:32;100128.31;;;0.93;76.51
34177;BME280;20450;49.074;9.158;2023-01-27T03:33:22;100128.69;;;0.98;75.69
34177;BME280;20450;49.074;9.158;2023-01-27T03:35:52;100126.91;;;0.89;76.14
34177;BME280;20450;49.074;9.158;2023-01-27T03:38:19;100128.72;;;0.89;76.45
34177;BME280;20450;49.074;9.158;2023-01-27T03:40:46;100134.44;;;0.94;76.46
34177;BME280;20450;49.074;9.158;2023-01-27T03:43:13;100126.19;;;0.97;76.46
34177;BME280;20450;49.074;9.158;2023-01-27T03:45:44;100121.72;;;0.97;76.26
34177;BME280;20450;49.074;9.158;2023-01-27T03:48:14;100127.44;;;1.02;76.71
34177;BME280;20450;49.074;9.158;2023-01-27T03:50:40;100127.88;;;0.98;75.53
34177;BME280;20450;49.074;9.158;2023-01-27T03:53:08;100139.47;;;0.97;76.20
34177;BME280;20450;49.074;9.158;2023-01-27T03:55:37;100140.75;;;1.02;76.15
34177;BME280;20450;49.074;9.158;2023-01-27T03:58:15;100143.13;;;1.05;76.30
34177;BME280;20450;49.074;9.158;2023-01-27T04:00:49;100153.91;;;1.04;76.59
34177;BME280;20450;49.074;9.158;2023-01-27T04:03:18;100146.59;;;1.06;76.39
34177;BME280;20450;49.074;9.158;2023-01-27T04:05:45;100144.53;;;0.81;76.21
34177;BME280;20450;49.074;9.158;2023-01-27T04:08:12;100152.81;;;0.87;77.11
34177;BME280;20450;49.074;9.158;2023-01-27T04:10:39;100144.69;;;0.89;77.13
34177;BME280;20450;49.074;9.158;2023-01-27T04:13:06;100158.53;;;0.92;76.83
34177;BME280;20450;49.074;9.158;2023-01-27T04:15:33;100151.09;;;0.96;76.75
34177;BME280;20450;49.074;9.158;2023-01-27T04:18:01;100153.34;;;1.00;76.89
34177;BME280;20450;49.074;9.158;2023-01-27T04:20:28;100149.56;;;0.84;77.21
34177;BME280;20450;49.074;9.158;2023-01-27T04:22:55;100149.28;;;0.87;76.82
34177;BME280;20450;49.074;9.158;2023-01-27T04:25:22;100159.66;;;0.90;76.60
34177;BME280;20450;49.074;9.158;2023-01-27T04:27:49;100152.66;;;0.89;76.73
34177;BME280;20450;49.074;9.158;2023-01-27T04:30:16;100142.59;;;0.92;76.42
34177;BME280;20450;49.074;9.158;2023-01-27T04:32:43;100153.91;;;0.94;76.13
34177;BME280;20450;49.074;9.158;2023-01-27T04:35:11;100157.13;;;0.88;76.32
34177;BME280;20450;49.074;9.158;2023-01-27T04:37:39;100159.53;;;0.82;76.44
34177;BME280;20450;49.074;9.158;2023-01-27T04:40:08;100163.28;;;0.79;76.91
34177;BME280;20450;49.074;9.158;2023-01-27T04:42:35;100159.38;;;0.64;76.27
34177;BME280;20450;49.074;9.158;2023-01-27T04:45:02;100166.94;;;0.69;76.75
34177;BME280;20450;49.074;9.158;2023-01-27T04:47:30;100172.25;;;0.78;76.73
34177;BME280;20450;49.074;9.158;2023-01-27T04:49:57;100163.00;;;0.82;76.14
34177;BME280;20450;49.074;9.158;2023-01-27T04:52:25;100153.78;;;0.86;75.54
34177;BME280;20450;49.074;9.158;2023-01-27T04:54:52;100163.28;;;0.89;76.94
34177;BME280;20450;49.074;9.158;2023-01-27T04:57:19;100164.28;;;0.88;76.66
34177;BME280;20450;49.074;9.158;2023-01-27T04:59:46;100158.53;;;0.83;76.59
34177;BME280;20450;49.074;9.158;2023-01-27T05:02:13;100157.00;;;0.80;76.59
34177;BME280;20450;49.074;9.158;2023-01-27T05:04:39;100149.56;;;0.84;76.39
34177;BME280;20450;49.074;9.158;2023-01-27T05:07:08;100157.28;;;0.87;76.57
34177;BME280;20450;49.074;9.158;2023-01-27T05:09:36;100160.63;;;0.89;76.42
34177;BME280;20450;49.074;9.158;2023-01-27T05:12:04;100163.88;;;0.92;76.35
34177;BME280;20450;49.074;9.158;2023-01-27T05:14:31;100158.84;;;0.89;76.23
34177;BME280;20450;49.074;9.158;2023-01-27T05:16:58;100160.78;;;0.78;76.33
34177;BME280;20450;49.074;9.158;2023-01-27T05:19:25;100163.16;;;0.81;76.44
34177;BME280;20450;49.074;9.158;2023-01-27T05:21:51;100167.50;;;0.82;76.80
34177;BME280;20450;49.074;9.158;2023-01-27T05:24:18;100162.44;;;0.88;76.89
34177;BME280;20450;49.074;9.158;2023-01-27T05:26:47;100154.47;;;0.88;77.20
34177;BME280;20450;49.074;9.158;2023-01-27T05:29:13;100159.94;;;0.87;77.54
34177;BME280;20450;49.074;9.158;2023-01-27T05:31:40;100164.53;;;0.94;77.72
34177;BME280;20450;49.074;9.158;2023-01-27T05:34:07;100179.22;;;0.98;77.68
34177;BME280;20450;49.074;9.158;2023-01-27T05:36:35;100176.72;;;0.87;77.58
34177;BME280;20450;49.074;9.158;2023-01-27T05:39:02;100180.78;;;0.91;77.70
34177;BME280;20450;49.074;9.158;2023-01-27T05:41:29;100184.69;;;0.78;77.23
34177;BME280;20450;49.074;9.158;2023-01-27T05:43:58;100192.09;;;0.55;77.28
34177;BME280;20450;49.074;9.158;2023-01-27T05:46:26;100192.09;;;0.55;78.47
34177;BME280;20450;49.074;9.158;2023-01-27T05:48:56;100178.81;;;0.55;78.42
34177;BME280;20450;49.074;9.158;2023-01-27T05:51:25;100194.91;;;0.44;78.39
34177;BME280;20450;49.074;9.158;2023-01-27T05:53:55;100193.50;;;0.50;78.89
34177;BME280;20450;49.074;9.158;2023-01-27T05:56:22;100186.22;;;0.33;78.56
34177;BME280;20450;49.074;9.158;2023-01-27T05:58:49;100190.66;;;0.23;78.82
34177;BME280;20450;49.074;9.158;2023-01-27T06:01:19;100187.00;;;0.14;78.90
34177;BME280;20450;49.074;9.158;2023-01-27T06:03:47;100185.31;;;0.13;78.89
34177;BME280;20450;49.074;9.158;2023-01-27T06:06:16;100182.09;;;0.10;79.36
34177;BME280;20450;49.074;9.158;2023-01-27T06:08:44;100181.69;;;0.14;80.53
34177;BME280;20450;49.074;9.158;2023-01-27T06:11:13;100189.97;;;0.30;79.88
34177;BME280;20450;49.074;9.158;2023-01-27T06:13:40;100189.28;;;0.28;79.38
34177;BME280;20450;49.074;9.158;2023-01-27T06:16:10;100187.75;;;0.35;79.50
34177;BME280;20450;49.074;9.158;2023-01-27T06:18:40;100189.84;;;0.41;79.23
34177;BME280;20450;49.074;9.158;2023-01-27T06:21:09;100182.31;;;0.56;79.54
34177;BME280;20450;49.074;9.158;2023-01-27T06:23:38;100184.16;;;0.65;78.62
34177;BME280;20450;49.074;9.158;2023-01-27T06:26:07;100176.47;;;0.71;78.26
34177;BME280;20450;49.074;9.158;2023-01-27T06:28:35;100184.56;;;0.79;78.65
34177;BME280;20450;49.074;9.158;2023-01-27T06:31:04;100185.84;;;0.85;77.82
34177;BME280;20450;49.074;9.158;2023-01-27T06:33:32;100180.38;;;0.77;77.43
34177;BME280;20450;49.074;9.158;2023-01-27T06:36:03;100187.78;;;0.83;77.89
34177;BME280;20450;49.074;9.158;2023-01-27T06:38:31;100195.50;;;0.67;77.97
34177;BME280;20450;49.074;9.158;2023-01-27T06:40:59;100203.47;;;0.67;78.10
34177;BME280;20450;49.074;9.158;2023-01-27T06:43:26;100202.78;;;0.74;78.34
34177;BME280;20450;49.074;9.158;2023-01-27T06:45:53;100217.72;;;0.75;78.13
34177;BME280;20450;49.074;9.158;2023-01-27T06:48:20;100216.47;;;0.70;78.35
34177;BME280;20450;49.074;9.158;2023-01-27T06:50:47;100228.22;;;0.67;78.33
34177;BME280;20450;49.074;9.158;2023-01-27T06:53:15;100220.66;;;0.72;78.17
34177;BME280;20450;49.074;9.158;2023-01-27T06:55:42;100222.78;;;0.78;78.03
34177;BME280;20450;49.074;9.158;2023-01-27T06:58:10;100228.53;;;0.83;78.14
34177;BME280;20450;49.074;9.158;2023-01-27T07:00:39;100234.66;;;0.84;77.99
34177;BME280;20450;49.074;9.158;2023-01-27T07:03:10;100233.69;;;0.85;77.70
34177;BME280;20450;49.074;9.158;2023-01-27T07:05:38;100236.78;;;0.80;77.15
34177;BME280;20450;49.074;9.158;2023-01-27T07:08:06;100249.88;;;0.63;77.16
34177;BME280;20450;49.074;9.158;2023-01-27T07:10:35;100244.16;;;0.67;77.67
34177;BME280;20450;49.074;9.158;2023-01-27T07:13:05;100263.06;;;0.74;77.50
34177;BME280;20450;49.074;9.158;2023-01-27T07:15:33;100267.06;;;0.40;76.60
34177;BME280;20450;49.074;9.158;2023-01-27T07:18:01;100262.59;;;0.50;78.89
34177;BME280;20450;49.074;9.158;2023-01-27T07:20:28;100263.56;;;0.49;76.80
34177;BME280;20450;49.074;9.158;2023-01-27T07:22:56;100264.25;;;0.41;77.61
34177;BME280;20450;49.074;9.158;2023-01-27T07:25:24;100262.63;;;0.59;78.71
34177;BME280;20450;49.074;9.158;2023-01-27T07:27:52;100264.31;;;0.70;78.26
34177;BME280;20450;49.074;9.158;2023-01-27T07:30:19;100260.16;;;0.86;77.70
34177;BME280;20450;49.074;9.158;2023-01-27T07:32:46;100255.25;;;1.20;81.49
34177;BME280;20450;49.074;9.158;2023-01-27T07:35:13;100275.56;;;1.02;75.49
34177;BME280;20450;49.074;9.158;2023-01-27T07:37:42;100276.78;;;0.88;76.41
34177;BME280;20450;49.074;9.158;2023-01-27T07:40:10;100269.38;;;0.82;76.32
34177;BME280;20450;49.074;9.158;2023-01-27T07:42:38;100286.00;;;0.75;76.69
34177;BME280;20450;49.074;9.158;2023-01-27T07:45:08;100281.69;;;0.74;77.20
34177;BME280;20450;49.074;9.158;2023-01-27T07:47:35;100283.22;;;0.67;77.00
34177;BME280;20450;49.074;9.158;2023-01-27T07:50:02;100281.38;;;0.58;77.39
34177;BME280;20450;49.074;9.158;2023-01-27T07:52:29;100286.09;;;0.54;76.71
34177;BME280;20450;49.074;9.158;2023-01-27T07:54:56;100286.25;;;0.53;77.17
34177;BME280;20450;49.074;9.158;2023-01-27T07:57:23;100285.03;;;0.66;77.44
34177;BME280;20450;49.074;9.158;2023-01-27T07:59:50;100284.75;;;0.69;76.62
34177;BME280;20450;49.074;9.158;2023-01-27T08:02:18;100286.00;;;0.65;76.82
34177;BME280;20450;49.074;9.158;2023-01-27T08:04:47;100296.22;;;0.70;76.09
34177;BME280;20450;49.074;9.158;2023-01-27T08:07:19;100295.66;;;0.66;76.70
34177;BME280;20450;49.074;9.158;2023-01-27T08:09:49;100301.41;;;0.81;77.52
34177;BME280;20450;49.074;9.158;2023-01-27T08:12:15;100308.66;;;0.69;77.44
34177;BME280;20450;49.074;9.158;2023-01-27T08:14:42;100314.72;;;0.81;76.57
34177;BME280;20450;49.074;9.158;2023-01-27T08:17:09;100311.63;;;0.76;76.64
34177;BME280;20450;49.074;9.158;2023-01-27T08:19:37;100307.41;;;0.73;77.60
34177;BME280;20450;49.074;9.158;2023-01-27T08:22:04;100306.88;;;0.70;77.14
34177;BME280;20450;49.074;9.158;2023-01-27T08:24:31;100305.84;;;0.61;76.48
34177;BME280;20450;49.074;9.158;2023-01-27T08:26:58;100306.38;;;0.46;76.41
34177;BME280;20450;49.074;9.158;2023-01-27T08:29:25;100305.56;;;0.55;77.53
34177;BME280;20450;49.074;9.158;2023-01-27T08:31:52;100308.91;;;0.57;76.29
34177;BME280;20450;49.074;9.158;2023-01-27T08:34:19;100310.69;;;0.37;76.22
34177;BME280;20450;49.074;9.158;2023-01-27T08:36:47;100316.00;;;0.37;76.87
34177;BME280;20450;49.074;9.158;2023-01-27T08:39:14;100306.03;;;0.30;76.78
34177;BME280;20450;49.074;9.158;2023-01-27T08:41:41;100314.97;;;0.29;77.20
34177;BME280;20450;49.074;9.158;2023-01-27T08:44:08;100321.53;;;0.25;77.13
34177;BME280;20450;49.074;9.158;2023-01-27T08:46:35;100320.41;;;0.27;77.15
34177;BME280;20450;49.074;9.158;2023-01-27T08:49:01;100323.66;;;0.31;77.55
34177;BME280;20450;49.074;9.158;2023-01-27T08:51:28;100328.69;;;0.34;77.55
34177;BME280;20450;49.074;9.158;2023-01-27T08:53:57;100333.22;;;0.52;78.25
34177;BME280;20450;49.074;9.158;2023-01-27T08:56:24;100330.94;;;0.68;76.53
34177;BME280;20450;49.074;9.158;2023-01-27T08:58:51;100321.72;;;0.82;77.19
34177;BME280;20450;49.074;9.158;2023-01-27T09:01:19;100328.28;;;0.78;75.42
34177;BME280;20450;49.074;9.158;2023-01-27T09:03:46;100325.47;;;0.79;75.18
34177;BME280;20450;49.074;9.158;2023-01-27T09:06:14;100329.00;;;0.80;75.64
34177;BME280;20450;49.074;9.158;2023-01-27T09:08:42;100328.72;;;0.83;75.54
34177;BME280;20450;49.074;9.158;2023-01-27T09:11:13;100314.88;;;0.89;75.32
34177;BME280;20450;49.074;9.158;2023-01-27T09:13:42;100311.38;;;0.88;75.35
34177;BME280;20450;49.074;9.158;2023-01-27T09:16:09;100315.16;;;0.95;74.56
34177;BME280;20450;49.074;9.158;2023-01-27T09:18:36;100312.63;;;0.84;75.14
34177;BME280;20450;49.074;9.158;2023-01-27T09:21:05;100318.38;;;0.99;75.82
34177;BME280;20450;49.074;9.158;2023-01-27T09:23:32;100322.59;;;1.11;75.25
34177;BME280;20450;49.074;9.158;2023-01-27T09:25:59;100321.78;;;1.20;74.92
34177;BME280;20450;49.074;9.158;2023-01-27T09:28:27;100327.50;;;0.96;74.04
34177;BME280;20450;49.074;9.158;2023-01-27T09:30:56;100334.63;;;0.96;74.54
34177;BME280;20450;49.074;9.158;2023-01-27T09:33:23;100332.97;;;1.14;75.06
34177;BME280;20450;49.074;9.158;2023-01-27T09:35:54;100330.47;;;1.22;75.05
34177;BME280;20450;49.074;9.158;2023-01-27T09:38:27;100320.78;;;1.30;75.38
34177;BME280;20450;49.074;9.158;2023-01-27T09:41:12;100321.50;;;1.42;74.68
34177;BME280;20450;49.074;9.158;2023-01-27T09:44:05;100327.38;;;1.45;73.94
34177;BME280;20450;49.074;9.158;2023-01-27T09:46:59;100338.31;;;1.42;73.99
34177;BME280;20450;49.074;9.158;2023-01-27T09:49:50;100336.06;;;1.47;74.21
34177;BME280;20450;49.074;9.158;2023-01-27T09:52:41;100338.72;;;1.57;74.42
34177;BME280;20450;49.074;9.158;2023-01-27T09:55:28;100340.97;;;1.42;73.97
34177;BME280;20450;49.074;9.158;2023-01-27T09:58:27;100336.63;;;1.13;75.39
34177;BME280;20450;49.074;9.158;2023-01-27T10:01:17;100345.84;;;0.99;75.81
34177;BME280;20450;49.074;9.158;2023-01-27T10:04:00;100346.91;;;0.87;76.34
34177;BME280;20450;49.074;9.158;2023-01-27T10:07:08;100341.50;;;1.08;76.47
34177;BME280;20450;49.074;9.158;2023-01-27T10:10:07;100333.00;;;1.23;75.87
34177;BME280;20450;49.074;9.158;2023-01-27T10:13:02;100326.53;;;1.26;74.40
34177;BME280;20450;49.074;9.158;2023-01-27T10:15:52;100326.94;;;1.40;75.33
34177;BME280;20450;49.074;9.158;2023-01-27T10:18:54;100334.09;;;1.30;74.65
34177;BME280;20450;49.074;9.158;2023-01-27T10:21:48;100332.41;;;1.39;74.38
34177;BME280;20450;49.074;9.158;2023-01-27T10:24:34;100320.25;;;1.36;74.88
34177;BME280;20450;49.074;9.158;2023-01-27T10:27:15;100324.56;;;1.37;74.83
34177;BME280;20450;49.074;9.158;2023-01-27T10:29:50;100329.22;;;1.35;74.62
34177;BME280;20450;49.074;9.158;2023-01-27T10:32:25;100333.66;;;1.44;73.76
34177;BME280;20450;49.074;9.158;2023-01-27T10:35:06;100328.19;;;1.46;74.12
34177;BME280;20450;49.074;9.158;2023-01-27T10:37:48;100323.03;;;1.54;73.70
34177;BME280;20450;49.074;9.158;2023-01-27T10:40:34;100325.84;;;1.52;73.17
34177;BME280;20450;49.074;9.158;2023-01-27T10:43:15;100327.91;;;1.49;73.30
34177;BME280;20450;49.074;9.158;2023-01-27T10:45:52;100318.28;;;1.38;73.53
34177;BME280;20450;49.074;9.158;2023-01-27T10:48:34;100307.75;;;1.46;73.02
34177;BME280;20450;49.074;9.158;2023-01-27T10:51:08;100315.19;;;1.52;72.98
34177;BME280;20450;49.074;9.158;2023-01-27T10:53:49;100324.69;;;1.64;72.73
34177;BME280;20450;49.074;9.158;2023-01-27T10:56:28;100322.75;;;1.38;72.77
34177;BME280;20450;49.074;9.158;2023-01-27T10:59:04;100325.13;;;1.31;74.00
34177;BME280;20450;49.074;9.158;2023-01-27T11:01:45;100324.31;;;1.31;73.75
34177;BME280;20450;49.074;9.158;2023-01-27T11:04:22;100327.38;;;1.36;73.36
34177;BME280;20450;49.074;9.158;2023-01-27T11:06:59;100336.34;;;1.16;74.01
34177;BME280;20450;49.074;9.158;2023-01-27T11:09:29;100329.59;;;1.12;74.04
34177;BME280;20450;49.074;9.158;2023-01-27T11:12:01;100330.00;;;0.98;74.69
34177;BME280;20450;49.074;9.158;2023-01-27T11:14:37;100341.66;;;1.16;75.24
34177;BME280;20450;49.074;9.158;2023-01-27T11:17:14;100334.66;;;1.05;74.12
34177;BME280;20450;49.074;9.158;2023-01-27T11:19:55;100333.50;;;0.98;74.67
34177;BME280;20450;49.074;9.158;2023-01-27T11:22:35;100327.63;;;0.95;75.02
34177;BME280;20450;49.074;9.158;2023-01-27T11:25:16;100328.75;;;1.02;75.63
34177;BME280;20450;49.074;9.158;2023-01-27T11:28:00;100330.31;;;1.14;75.13
34177;BME280;20450;49.074;9.158;2023-01-27T11:30:45;100323.97;;;0.96;75.84
34177;BME280;20450;49.074;9.158;2023-01-27T11:33:23;100324.38;;;0.91;75.39
34177;BME280;20450;49.074;9.158;2023-01-27T11:35:57;100313.06;;;0.89;75.30
34177;BME280;20450;49.074;9.158;2023-01-27T11:38:25;100320.47;;;0.86;75.72
34177;BME280;20450;49.074;9.158;2023-01-27T11:40:52;100314.47;;;0.93;75.72
34177;BME280;20450;49.074;9.158;2023-01-27T11:43:23;100312.22;;;0.89;76.07
34177;BME280;20450;49.074;9.158;2023-01-27T11:45:56;100301.88;;;1.05;76.77
34177;BME280;20450;49.074;9.158;2023-01-27T11:48:36;100305.25;;;1.26;75.92
34177;BME280;20450;49.074;9.158;2023-01-27T11:51:04;100314.50;;;1.41;74.66
34177;BME280;20450;49.074;9.158;2023-01-27T11:53:39;100307.75;;;1.46;74.11
34177;BME280;20450;49.074;9.158;2023-01-27T11:56:09;100305.09;;;1.08;74.90
34177;BME280;20450;49.074;9.158;2023-01-27T11:58:49;100315.88;;;1.07;75.73
34177;BME280;20450;49.074;9.158;2023-01-27T12:01:35;100306.91;;;1.08;75.68
34177;BME280;20450;49.074;9.158;2023-01-27T12:04:12;100312.34;;;0.97;75.64
34177;BME280;20450;49.074;9.158;2023-01-27T12:06:48;100301.47;;;1.09;77.08
34177;BME280;20450;49.074;9.158;2023-01-27T12:09:32;100298.53;;;1.12;74.93
34177;BME280;20450;49.074;9.158;2023-01-27T12:12:19;100306.63;;;1.11;74.97
34177;BME280;20450;49.074;9.158;2023-01-27T12:14:50;100310.53;;;0.97;75.55
34177;BME280;20450;49.074;9.158;2023-01-27T12:17:24;100291.94;;;0.97;76.12
34177;BME280;20450;49.074;9.158;2023-01-27T12:19:59;100299.38;;;1.13;75.04
34177;BME280;20450;49.074;9.158;2023-01-27T12:22:33;100295.84;;;1.12;75.45
34177;BME280;20450;49.074;9.158;2023-01-27T12:25:13;100293.63;;;1.08;75.70
34177;BME280;20450;49.074;9.158;2023-01-27T12:27:48;100301.31;;;1.11;75.56
34177;BME280;20450;49.074;9.158;2023-01-27T12:30:21;100296.44;;;1.16;75.49
34177;BME280;20450;49.074;9.158;2023-01-27T12:32:50;100292.38;;;1.31;75.64
34177;BME280;20450;49.074;9.158;2023-01-27T12:35:21;100289.28;;;1.45;75.18
34177;BME280;20450;49.074;9.158;2023-01-27T12:37:55;100291.22;;;1.43;74.96
34177;BME280;20450;49.074;9.158;2023-01-27T12:40:27;100291.94;;;1.54;74.37
34177;BME280;20450;49.074;9.158;2023-01-27T12:43:08;100285.91;;;1.62;74.28
34177;BME280;20450;49.074;9.158;2023-01-27T12:45:38;100285.03;;;1.71;74.10
34177;BME280;20450;49.074;9.158;2023-01-27T12:48:19;100282.47;;;1.79;74.21
34177;BME280;20450;49.074;9.158;2023-01-27T12:50:55;100291.28;;;1.89;73.51
34177;BME280;20450;49.074;9.158;2023-01-27T12:53:30;100285.19;;;1.69;73.53
34177;BME280;20450;49.074;9.158;2023-01-27T12:56:00;100281.72;;;1.40;74.42
34177;BME280;20450;49.074;9.158;2023-01-27T12:58:37;100281.03;;;1.29;74.41
34177;BME280;20450;49.074;9.158;2023-01-27T13:01:19;100285.22;;;1.22;75.93
34177;BME280;20450;49.074;9.158;2023-01-27T13:03:54;100298.09;;;1.36;75.16
34177;BME280;20450;49.074;9.158;2023-01-27T13:06:36;100304.13;;;1.38;75.76
34177;BME280;20450;49.074;9.158;2023-01-27T13:09:04;100301.75;;;1.35;74.64
34177;BME280;20450;49.074;9.158;2023-01-27T13:11:35;100299.22;;;1.24;74.93
34177;BME280;20450;49.074;9.158;2023-01-27T13:14:15;100296.25;;;1.46;75.28
34177;BME280;20450;49.074;9.158;2023-01-27T13:16:49;100291.63;;;1.67;74.75
34177;BME280;20450;49.074;9.158;2023-01-27T13:19:18;100304.78;;;1.68;73.30
34177;BME280;20450;49.074;9.158;2023-01-27T13:21:49;100305.78;;;1.58;72.77